Time;durP1;ratioP1;P1;durP2;ratioP2;P2;SDS_P1;SDS_P2;PMS_P1;PMS_P2;Temp;Humidity;BMP_temperature;BMP_pressure;BME280_temperature;BME280_humidity;BME280_pressure;Samples;Min_cycle;Max_cycle;Signal;HPM_P1;HPM_P2
2022/01/26 00:05:44;;;;;;;65.07;21.23;;;;;;;;;;5028691;28;20204;-83
2022/01/26 00:06:30;;;;;;;45.50;20.17;;;;;;;;;;5028031;28;20205;-83
2022/01/26 00:08:58;;;;;;;34.80;19.90;;;;;;;;;;5028623;28;20220;-83
2022/01/26 00:11:27;;;;;;;42.38;19.45;;;;;;;;;;5028385;28;20259;-83
2022/01/26 00:13:56;;;;;;;34.88;23.65;;;;;;;;;;5027987;28;20282;-83
2022/01/26 00:16:26;;;;;;;50.45;19.02;;;;;;;;;;5027783;28;20231;-83
2022/01/26 00:18:57;;;;;;;32.35;19.73;;;;;;;;;;5017797;28;20278;-83
2022/01/26 00:21:32;;;;;;;65.93;18.58;;;;;;;;;;5021121;28;20204;-83
2022/01/26 00:27:23;;;;;;;36.10;21.02;;;;;;;;;;5027769;28;20262;-83
2022/01/26 00:31:12;;;;;;;36.17;22.42;;;;;;;;;;5028365;28;20641;-83
2022/01/26 00:38:38;;;;;;;46.65;18.58;;;;;;;;;;5018729;28;20215;-83
2022/01/26 00:41:08;;;;;;;34.55;18.35;;;;;;;;;;5027968;28;20216;-83
2022/01/26 00:43:36;;;;;;;70.13;21.20;;;;;;;;;;5028361;28;20687;-83
2022/01/26 00:46:06;;;;;;;52.53;21.70;;;;;;;;;;5027531;28;20553;-84
2022/01/26 00:48:37;;;;;;;102.07;19.65;;;;;;;;;;5028010;28;20246;-83
2022/01/26 00:51:05;;;;;;;66.30;21.70;;;;;;;;;;5027723;28;20197;-83
2022/01/26 00:53:37;;;;;;;57.08;21.17;;;-0.20;99.90;;;;;;5027769;28;20240;-83
2022/01/26 00:56:06;;;;;;;74.05;18.73;;;-0.30;99.90;;;;;;5026581;28;20205;-82
2022/01/26 00:58:33;;;;;;;57.38;20.85;;;;;;;;;;5028379;28;20246;-83
2022/01/26 01:01:02;;;;;;;42.92;20.05;;;;;;;;;;5027467;28;20614;-83
2022/01/26 01:03:33;;;;;;;36.45;20.23;;;;;;;;;;5025129;28;20730;-83
2022/01/26 01:06:04;;;;;;;62.28;21.80;;;;;;;;;;5026695;28;20189;-83
2022/01/26 01:08:34;;;;;;;52.50;21.52;;;;;;;;;;5028330;28;20236;-83
2022/01/26 01:11:02;;;;;;;39.15;21.15;;;;;;;;;;5027356;28;20638;-83
2022/01/26 01:13:34;;;;;;;95.38;22.80;;;;;;;;;;5028030;28;20635;-83
2022/01/26 01:16:01;;;;;;;40.55;20.42;;;;;;;;;;5026959;28;20193;-83
2022/01/26 01:18:39;;;;;;;47.08;23.40;;;;;;;;;;5027681;28;20204;-83
2022/01/26 01:21:43;;;;;;;50.38;23.95;;;;;;;;;;5027623;28;20255;-83
2022/01/26 01:24:27;;;;;;;57.67;20.55;;;-0.10;99.90;;;;;;5012950;28;20212;-83
2022/01/26 01:29:43;;;;;;;56.60;20.05;;;;;;;;;;4982974;28;20224;-83
2022/01/26 01:32:15;;;;;;;48.63;21.30;;;;;;;;;;5015000;28;20205;-83
2022/01/26 01:34:43;;;;;;;45.70;20.35;;;;;;;;;;5030490;28;20709;-83
2022/01/26 01:37:15;;;;;;;56.20;19.63;;;;;;;;;;5031007;28;20200;-83
2022/01/26 01:39:42;;;;;;;71.93;22.33;;;;;;;;;;5029625;28;20189;-83
2022/01/26 01:42:09;;;;;;;74.53;20.50;;;;;;;;;;5017549;28;20241;-83
2022/01/26 01:44:37;;;;;;;55.60;20.30;;;;;;;;;;5030402;28;20208;-83
2022/01/26 01:47:05;;;;;;;76.80;23.65;;;;;;;;;;5031036;28;20258;-83
2022/01/26 01:49:32;;;;;;;95.40;25.58;;;;;;;;;;5030508;28;20220;-83
2022/01/26 01:52:03;;;;;;;73.78;23.15;;;;;;;;;;5031229;28;20595;-83
2022/01/26 01:54:32;;;;;;;97.40;23.10;;;;;;;;;;5028742;28;20239;-83
2022/01/26 01:56:59;;;;;;;80.38;20.95;;;;;;;;;;5029396;28;20189;-83
2022/01/26 01:59:28;;;;;;;61.85;21.65;;;;;;;;;;5030951;28;20259;-83
2022/01/26 02:01:55;;;;;;;95.93;20.50;;;;;;;;;;5027032;28;20267;-83
2022/01/26 02:04:23;;;;;;;68.35;23.75;;;;;;;;;;5030098;28;20209;-83
2022/01/26 02:06:50;;;;;;;39.63;21.08;;;;;;;;;;5030949;28;20287;-83
2022/01/26 02:09:19;;;;;;;51.13;19.70;;;;;;;;;;5030670;28;20235;-83
2022/01/26 02:11:49;;;;;;;80.43;21.23;;;-0.10;99.90;;;;;;5030604;28;20197;-83
2022/01/26 02:14:23;;;;;;;112.13;25.40;;;;;;;;;;5029839;28;20657;-83
2022/01/26 02:16:59;;;;;;;64.97;22.05;;;;;;;;;;5030337;28;20234;-83
2022/01/26 02:53:16;;;;;;;56.47;17.83;;;;;;;;;;5008471;28;20201;-82
2022/01/26 02:55:49;;;;;;;34.53;18.13;;;;;;;;;;5028419;28;20201;-82
2022/01/26 03:01:16;;;;;;;47.80;19.20;;;;;;;;;;5029332;28;20224;-83
2022/01/26 03:03:50;;;;;;;61.17;20.48;;;;;;;;;;5010297;28;20209;-83
2022/01/26 03:06:25;;;;;;;43.75;18.70;;;;;;;;;;5015822;28;20200;-83
2022/01/26 03:08:58;;;;;;;49.42;18.52;;;;;;;;;;5030021;28;20577;-82
2022/01/26 03:11:30;;;;;;;41.13;19.85;;;;;;;;;;5029120;28;20550;-82
2022/01/26 03:14:06;;;;;;;77.68;20.25;;;;;;;;;;5029353;28;20589;-83
2022/01/26 03:16:38;;;;;;;57.17;19.02;;;;;;;;;;5027861;28;20277;-83
2022/01/26 03:19:17;;;;;;;39.70;18.88;;;;;;;;;;5023850;28;20316;-83
2022/01/26 03:21:54;;;;;;;58.22;15.50;;;;;;;;;;5023699;28;20197;-83
2022/01/26 03:29:59;;;;;;;32.25;17.02;;;;;;;;;;5028799;28;20213;-83
2022/01/26 03:35:14;;;;;;;54.05;18.08;;;;;;;;;;5044673;28;20224;-83
2022/01/26 03:37:50;;;;;;;40.65;17.25;;;;;;;;;;5029027;28;20308;-83
2022/01/26 03:40:17;;;;;;;38.10;18.42;;;;;;;;;;5033524;28;20219;-83
2022/01/26 03:42:45;;;;;;;38.55;17.55;;;;;;;;;;5030166;28;20239;-83
2022/01/26 03:45:13;;;;;;;37.42;16.33;;;;;;;;;;5035815;28;20741;-82
2022/01/26 03:47:40;;;;;;;36.40;16.20;;;;;;;;;;5041604;28;20197;-83
2022/01/26 03:50:07;;;;;;;33.70;16.75;;;;;;;;;;5033883;28;20196;-83
2022/01/26 03:52:34;;;;;;;36.72;15.57;;;;;;;;;;5039623;28;20204;-83
2022/01/26 03:55:01;;;;;;;30.13;16.67;;;;;;;;;;5029870;28;20215;-83
2022/01/26 03:57:29;;;;;;;30.88;16.83;;;;;;;;;;5029358;28;20569;-82
2022/01/26 03:59:57;;;;;;;28.80;15.98;;;;;;;;;;5038620;28;20203;-83
2022/01/26 04:02:24;;;;;;;28.42;15.90;;;;;;;;;;5034843;28;20291;-82
2022/01/26 04:04:57;;;;;;;32.13;14.45;;;;;;;;;;5027703;28;20256;-83
2022/01/26 04:07:24;;;;;;;26.80;14.13;;;;;;;;;;5014759;28;20296;-82
2022/01/26 04:09:51;;;;;;;21.48;13.98;;;;;;;;;;5039927;28;20246;-83
2022/01/26 04:12:18;;;;;;;24.23;14.15;;;;;;;;;;5028632;28;20208;-83
2022/01/26 04:14:52;;;;;;;30.30;15.82;;;;;;;;;;5022096;28;20592;-83
2022/01/26 04:17:21;;;;;;;31.45;12.60;;;;;;;;;;5028197;28;20561;-83
2022/01/26 04:19:54;;;;;;;19.52;13.05;;;;;;;;;;5028627;28;20203;-83
2022/01/26 04:22:28;;;;;;;22.13;12.68;;;;;;;;;;5028294;28;20220;-82
2022/01/26 04:24:57;;;;;;;28.58;14.45;;;;;;;;;;5029657;28;20292;-83
2022/01/26 04:27:33;;;;;;;28.50;15.38;;;;;;;;;;5028459;28;20197;-82
2022/01/26 04:30:01;;;;;;;23.48;13.23;;;;;;;;;;5017707;28;20582;-83
2022/01/26 04:32:29;;;;;;;32.92;12.95;;;;;;;;;;5027770;28;20627;-83
2022/01/26 04:34:57;;;;;;;26.60;13.00;;;;;;;;;;5027671;28;20256;-83
2022/01/26 04:37:34;;;;;;;21.67;11.10;;;;;;;;;;5028063;28;20204;-83
2022/01/26 04:40:03;;;;;;;41.10;15.10;;;;;;;;;;5024100;28;20196;-83
2022/01/26 04:42:40;;;;;;;23.15;12.20;;;;;;;;;;5017880;28;20279;-83
2022/01/26 04:45:10;;;;;;;26.13;11.93;;;-0.50;99.90;;;;;;5027509;28;20193;-83
2022/01/26 04:47:39;;;;;;;41.70;13.63;;;;;;;;;;5027768;28;20224;-83
2022/01/26 04:50:09;;;;;;;31.25;14.35;;;-0.50;99.90;;;;;;5028008;28;20239;-83
2022/01/26 04:52:36;;;;;;;22.48;13.70;;;;;;;;;;5027958;28;20207;-83
2022/01/26 04:55:04;;;;;;;25.85;12.60;;;;;;;;;;5025751;28;20315;-83
2022/01/26 04:57:31;;;;;;;30.42;14.45;;;;;;;;;;5028103;28;20204;-84
2022/01/26 04:59:58;;;;;;;27.65;13.60;;;;;;;;;;5027815;28;20205;-83
2022/01/26 05:02:25;;;;;;;28.00;13.32;;;;;;;;;;5024303;28;20220;-83
2022/01/26 05:04:54;;;;;;;43.20;12.43;;;;;;;;;;5030229;28;20275;-83
2022/01/26 05:07:21;;;;;;;17.88;10.48;;;;;;;;;;5031992;28;20208;-83
2022/01/26 05:09:48;;;;;;;36.90;17.38;;;;;;;;;;5025542;28;20778;-83
2022/01/26 05:12:16;;;;;;;28.08;15.02;;;;;;;;;;5030533;28;20239;-83
2022/01/26 05:14:45;;;;;;;23.20;12.13;;;;;;;;;;5031105;28;20229;-83
2022/01/26 05:17:14;;;;;;;22.75;13.05;;;;;;;;;;5031703;28;20201;-83
2022/01/26 05:19:41;;;;;;;20.13;11.80;;;;;;;;;;5031163;28;20677;-83
2022/01/26 05:22:09;;;;;;;21.55;12.00;;;;;;;;;;5031125;28;20669;-83
2022/01/26 05:24:36;;;;;;;28.42;13.80;;;;;;;;;;5030977;28;20201;-83
2022/01/26 05:27:03;;;;;;;22.13;11.85;;;;;;;;;;5031415;28;20200;-83
2022/01/26 05:29:31;;;;;;;38.15;16.35;;;;;;;;;;5031182;28;20308;-83
2022/01/26 05:31:58;;;;;;;26.88;14.27;;;;;;;;;;5030808;28;20599;-83
2022/01/26 05:34:25;;;;;;;47.22;13.90;;;;;;;;;;5030008;28;20698;-83
2022/01/26 05:36:52;;;;;;;24.98;14.00;;;;;;;;;;5031393;28;20228;-83
2022/01/26 05:39:21;;;;;;;23.40;14.05;;;;;;;;;;5030946;28;20196;-82
2022/01/26 05:41:48;;;;;;;28.65;13.73;;;;;;;;;;5013526;28;20193;-82
2022/01/26 05:44:15;;;;;;;23.13;12.80;;;;;;;;;;5030945;28;20283;-83
2022/01/26 05:46:46;;;;;;;31.27;15.05;;;;;;;;;;5030799;28;20196;-82
2022/01/26 05:49:13;;;;;;;27.55;13.00;;;;;;;;;;5030003;28;20224;-82
2022/01/26 05:51:44;;;;;;;18.92;11.55;;;;;;;;;;5030805;28;20303;-83
2022/01/26 05:54:12;;;;;;;23.38;12.82;;;;;;;;;;5029554;28;20232;-82
2022/01/26 05:56:42;;;;;;;26.55;15.77;;;;;;;;;;5031272;28;20611;-82
2022/01/26 05:59:09;;;;;;;24.55;14.85;;;;;;;;;;5030850;28;20201;-82
2022/01/26 06:01:36;;;;;;;27.30;13.45;;;;;;;;;;5025676;28;20271;-83
2022/01/26 06:04:04;;;;;;;21.35;13.07;;;;;;;;;;5029731;28;20283;-84
2022/01/26 06:06:31;;;;;;;26.50;12.82;;;;;;;;;;5029860;28;20682;-84
2022/01/26 06:08:58;;;;;;;19.30;12.40;;;;;;;;;;5030816;28;20236;-85
2022/01/26 06:11:25;;;;;;;26.83;15.02;;;;;;;;;;5025456;28;20231;-85
2022/01/26 06:13:55;;;;;;;26.13;13.68;;;;;;;;;;5028128;28;20932;-84
2022/01/26 06:16:29;;;;;;;21.33;13.85;;;;;;;;;;5008552;28;20205;-85
2022/01/26 06:18:56;;;;;;;26.92;13.98;;;;;;;;;;5018471;28;20200;-84
2022/01/26 06:21:23;;;;;;;27.25;13.75;;;;;;;;;;5021469;28;20292;-84
2022/01/26 06:23:50;;;;;;;24.80;14.90;;;;;;;;;;5026623;28;20220;-85
2022/01/26 06:26:18;;;;;;;25.27;13.10;;;;;;;;;;5029213;28;20240;-84
2022/01/26 06:28:45;;;;;;;23.35;13.63;;;;;;;;;;5027924;28;20276;-84
2022/01/26 06:31:15;;;;;;;24.13;13.25;;;;;;;;;;5030623;28;20617;-84
2022/01/26 06:33:43;;;;;;;27.98;14.00;;;;;;;;;;5028151;28;20224;-85
2022/01/26 06:36:12;;;;;;;36.83;18.20;;;;;;;;;;5027106;28;20774;-84
2022/01/26 06:38:40;;;;;;;25.45;14.55;;;;;;;;;;5031354;28;20689;-85
2022/01/26 06:41:10;;;;;;;23.25;13.70;;;;;;;;;;5030373;28;20625;-85
2022/01/26 06:43:46;;;;;;;30.73;16.40;;;;;;;;;;5030849;28;20641;-85
2022/01/26 06:46:21;;;;;;;28.95;15.43;;;;;;;;;;5030545;28;20626;-84
2022/01/26 06:49:03;;;;;;;24.65;13.25;;;;;;;;;;5030712;28;20196;-85
2022/01/26 06:51:30;;;;;;;28.25;14.50;;;;;;;;;;5029635;28;20227;-85
2022/01/26 06:53:58;;;;;;;24.33;13.05;;;;;;;;;;5030562;28;20712;-84
2022/01/26 06:56:25;;;;;;;24.90;12.25;;;;;;;;;;5030003;28;20631;-85
2022/01/26 06:58:52;;;;;;;27.35;12.93;;;;;;;;;;5031097;28;20219;-84
2022/01/26 07:01:20;;;;;;;22.85;15.48;;;;;;;;;;5030521;28;20280;-85
2022/01/26 07:03:48;;;;;;;23.58;12.70;;;;;;;;;;5030544;28;20283;-84
2022/01/26 07:06:15;;;;;;;24.30;12.90;;;;;;;;;;5028936;28;20215;-84
2022/01/26 07:08:44;;;;;;;29.55;14.45;;;;;;;;;;5030350;28;20276;-84
2022/01/26 07:11:11;;;;;;;29.58;15.38;;;;;;;;;;5030544;28;20205;-84
2022/01/26 07:13:39;;;;;;;27.90;14.00;;;;;;;;;;5030225;28;20227;-84
2022/01/26 07:21:37;;;;;;;22.25;13.45;;;;;;;;;;5025752;28;20211;-84
2022/01/26 07:24:05;;;;;;;28.35;13.43;;;;;;;;;;5018177;28;20511;-84
2022/01/26 07:26:32;;;;;;;21.75;12.05;;;;;;;;;;5023731;28;20268;-84
2022/01/26 07:29:02;;;;;;;17.95;11.20;;;;;;;;;;5023713;28;20216;-85
2022/01/26 07:31:30;;;;;;;18.73;12.00;;;;;;;;;;5029857;28;20193;-84
2022/01/26 07:33:58;;;;;;;26.55;15.05;;;;;;;;;;5018406;28;20301;-84
2022/01/26 07:36:26;;;;;;;25.85;13.32;;;;;;;;;;5028477;28;20251;-84
2022/01/26 07:38:55;;;;;;;21.02;13.13;;;;;;;;;;5025883;28;20705;-84
2022/01/26 07:41:22;;;;;;;26.05;13.75;;;;;;;;;;5026382;28;20227;-84
2022/01/26 07:43:49;;;;;;;18.08;12.93;;;;;;;;;;5020793;28;20258;-84
2022/01/26 07:46:17;;;;;;;23.23;13.90;;;;;;;;;;5028276;28;20201;-84
2022/01/26 07:48:44;;;;;;;19.95;11.82;;;;;;;;;;5029329;28;20216;-84
2022/01/26 07:51:13;;;;;;;29.20;13.43;;;;;;;;;;5028626;28;20224;-85
2022/01/26 07:53:40;;;;;;;20.15;12.63;;;;;;;;;;5029397;28;20208;-84
2022/01/26 07:56:07;;;;;;;23.30;11.57;;;;;;;;;;5027179;28;20224;-84
2022/01/26 07:58:34;;;;;;;19.70;12.82;;;;;;;;;;5029283;28;20270;-84
2022/01/26 08:01:04;;;;;;;21.70;12.95;;;;;;;;;;5028484;28;20197;-84
2022/01/26 08:03:33;;;;;;;22.63;12.23;;;;;;;;;;5009642;28;20244;-85
2022/01/26 08:06:01;;;;;;;18.33;12.85;;;;;;;;;;5027551;28;20196;-85
2022/01/26 08:08:29;;;;;;;26.02;14.23;;;;;;;;;;5029397;28;20960;-85
2022/01/26 08:10:57;;;;;;;24.52;13.95;;;;;;;;;;5028027;28;20216;-85
2022/01/26 08:13:24;;;;;;;24.40;13.23;;;;;;;;;;5028187;28;20250;-85
2022/01/26 08:15:56;;;;;;;28.67;15.40;;;;;;;;;;5028839;28;20232;-85
2022/01/26 08:18:23;;;;;;;25.65;14.10;;;;;;;;;;5029392;28;20212;-85
2022/01/26 08:20:51;;;;;;;25.23;15.55;;;;;;;;;;5026582;28;20200;-84
2022/01/26 08:23:20;;;;;;;28.33;14.63;;;;;;;;;;5027942;28;20572;-85
2022/01/26 08:25:51;;;;;;;28.15;15.25;;;;;;;;;;5024212;28;20308;-85
2022/01/26 08:28:23;;;;;;;24.13;13.52;;;;;;;;;;5009129;28;20623;-85
2022/01/26 08:30:50;;;;;;;28.80;15.60;;;;;;;;;;5027831;28;20196;-84
2022/01/26 08:33:17;;;;;;;27.55;13.45;;;;;;;;;;5025578;28;20286;-85
2022/01/26 08:35:46;;;;;;;27.40;14.20;;;;;;;;;;5024796;28;20243;-85
2022/01/26 08:38:13;;;;;;;18.73;12.60;;;;;;;;;;5027133;28;21028;-85
2022/01/26 08:40:40;;;;;;;26.63;13.48;;;;;;;;;;5028678;28;20736;-84
2022/01/26 08:43:09;;;;;;;26.10;14.45;;;;;;;;;;5028136;28;20197;-84
2022/01/26 08:45:36;;;;;;;27.55;16.45;;;;;;;;;;5028348;28;20296;-85
2022/01/26 08:48:03;;;;;;;26.98;15.20;;;;;;;;;;5025913;28;20262;-85
2022/01/26 08:50:31;;;;;;;22.38;13.35;;;;;;;;;;5027613;28;20606;-85
2022/01/26 08:52:58;;;;;;;25.15;15.20;;;;;;;;;;5027938;28;20219;-85
2022/01/26 08:55:25;;;;;;;21.90;13.43;;;;;;;;;;5026007;28;20839;-84
2022/01/26 08:57:53;;;;;;;24.00;13.98;;;;;;;;;;5027991;28;20574;-85
2022/01/26 09:00:21;;;;;;;29.90;16.10;;;;;;;;;;5028389;28;20201;-84
2022/01/26 09:02:51;;;;;;;30.88;15.73;;;;;;;;;;5016328;28;20201;-84
2022/01/26 09:05:18;;;;;;;21.52;13.80;;;;;;;;;;5027917;28;20201;-84
2022/01/26 09:07:45;;;;;;;26.10;16.20;;;;;;;;;;5027856;28;20205;-85
2022/01/26 09:10:13;;;;;;;28.77;15.10;;;;;;;;;;5027234;28;20197;-85
2022/01/26 09:12:42;;;;;;;22.00;14.45;;;;;;;;;;5028225;28;20200;-85
2022/01/26 09:15:11;;;;;;;23.17;13.00;;;;;;;;;;5011161;28;20256;-84
2022/01/26 09:17:40;;;;;;;26.67;15.43;;;;;;;;;;5026205;28;20204;-85
2022/01/26 09:20:08;;;;;;;30.63;16.30;;;-0.50;99.90;;;;;;5028586;28;20225;-84
2022/01/26 09:22:35;;;;;;;22.25;13.70;;;;;;;;;;5022510;28;20197;-84
2022/01/26 09:25:03;;;;;;;22.13;14.15;;;;;;;;;;5026206;28;20193;-85
2022/01/26 09:27:30;;;;;;;27.85;16.27;;;;;;;;;;5027251;28;20291;-84
2022/01/26 09:29:57;;;;;;;32.72;15.70;;;;;;;;;;5022606;28;20306;-84
2022/01/26 09:32:24;;;;;;;27.48;13.63;;;;;;;;;;5026967;28;20732;-85
2022/01/26 09:34:53;;;;;;;26.92;15.35;;;;;;;;;;5028276;28;20189;-85
2022/01/26 09:37:21;;;;;;;30.88;14.40;;;;;;;;;;5028573;28;20507;-85
2022/01/26 09:39:48;;;;;;;29.25;14.70;;;-0.60;99.90;;;;;;5025802;28;20201;-84
2022/01/26 09:42:16;;;;;;;27.33;14.55;;;;;;;;;;5027429;28;20262;-84
2022/01/26 09:44:43;;;;;;;28.05;13.77;;;;;;;;;;5026950;28;20266;-85
2022/01/26 09:47:11;;;;;;;25.10;13.98;;;;;;;;;;5028499;28;20765;-85
2022/01/26 09:49:39;;;;;;;25.75;14.88;;;-0.30;99.90;;;;;;5019991;28;20659;-85
2022/01/26 09:52:14;;;;;;;30.25;14.13;;;-0.20;99.90;;;;;;5028980;28;20197;-85
2022/01/26 09:54:42;;;;;;;27.90;14.48;;;;;;;;;;5029890;28;20283;-85
2022/01/26 09:57:09;;;;;;;35.28;14.40;;;;;;;;;;5030505;28;20239;-85
2022/01/26 09:59:36;;;;;;;27.05;15.02;;;;;;;;;;5027189;28;20220;-85
2022/01/26 10:02:04;;;;;;;26.42;13.35;;;;;;;;;;5023532;28;20202;-85
2022/01/26 10:04:34;;;;;;;22.17;12.75;;;;;;;;;;5031108;28;20295;-85
2022/01/26 10:07:16;;;;;;;28.75;13.45;;;;;;;;;;5028116;28;20287;-85
2022/01/26 10:15:29;;;;;;;23.70;11.93;;;;;;;;;;5029771;28;20236;-84
2022/01/26 10:18:04;;;;;;;21.30;11.57;;;;;;;;;;5029850;28;20200;-84
2022/01/26 10:20:39;;;;;;;18.75;10.45;;;;;;;;;;5031168;28;20204;-84
2022/01/26 10:23:07;;;;;;;22.38;13.25;;;;;;;;;;5026765;28;20208;-85
2022/01/26 10:25:36;;;;;;;22.63;12.93;;;;;;;;;;5026129;28;20205;-84
2022/01/26 10:28:03;;;;;;;14.32;10.73;;;;;;;;;;5030646;28;20208;-85
2022/01/26 10:30:30;;;;;;;22.88;12.45;;;;;;;;;;5029796;28;20754;-84
2022/01/26 10:32:58;;;;;;;20.23;13.45;;;;;;;;;;5030212;28;20235;-85
2022/01/26 10:35:25;;;;;;;24.75;14.68;;;;;;;;;;5030162;28;20204;-85
2022/01/26 10:37:53;;;;;;;25.35;13.63;;;;;;;;;;5030556;28;20291;-85
2022/01/26 10:40:22;;;;;;;25.85;12.93;;;;;;;;;;5031068;28;20520;-84
2022/01/26 10:42:59;;;;;;;26.45;15.45;;;;;;;;;;5028934;28;20200;-85
2022/01/26 10:45:52;;;;;;;27.58;15.63;;;0.30;99.90;;;;;;5029819;28;20270;-85
2022/01/26 10:48:24;;;;;;;22.85;14.95;;;;;;;;;;5030284;28;20239;-85
2022/01/26 10:53:46;;;;;;;28.20;14.77;;;;;;;;;;4997352;28;20217;-85
2022/01/26 10:56:13;;;;;;;33.20;14.90;;;;;;;;;;5026302;28;20248;-84
2022/01/26 10:58:42;;;;;;;25.55;15.23;;;;;;;;;;5030718;28;20196;-84
2022/01/26 11:01:10;;;;;;;27.67;13.80;;;;;;;;;;5029229;28;20287;-85
2022/01/26 11:03:37;;;;;;;26.85;14.10;;;;;;;;;;5029087;28;20262;-84
2022/01/26 11:06:05;;;;;;;31.15;18.73;;;;;;;;;;5027486;28;20800;-84
2022/01/26 11:08:37;;;;;;;28.45;14.75;;;;;;;;;;5029777;28;20262;-84
2022/01/26 11:11:04;;;;;;;19.30;13.25;;;;;;;;;;5029971;28;20693;-84
2022/01/26 11:13:39;;;;;;;23.05;15.10;;;;;;;;;;5028669;28;20571;-84
2022/01/26 11:16:11;;;;;;;21.75;15.95;;;;;;;;;;5027770;28;20220;-85
2022/01/26 11:18:49;;;;;;;28.75;15.10;;;0.10;99.90;;;;;;5025319;28;20288;-84
2022/01/26 11:21:26;;;;;;;23.17;14.15;;;;;;;;;;5022296;28;20220;-85
2022/01/26 11:24:04;;;;;;;27.08;15.25;;;;;;;;;;5027621;28;20198;-84
2022/01/26 11:26:31;;;;;;;25.98;15.02;;;;;;;;;;5029280;28;20311;-85
2022/01/26 11:28:59;;;;;;;25.35;14.90;;;;;;;;;;5029586;28;20193;-84
2022/01/26 11:31:28;;;;;;;25.65;15.00;;;;;;;;;;5029331;28;20304;-84
2022/01/26 11:33:56;;;;;;;28.63;17.35;;;;;;;;;;5027031;28;20754;-84
2022/01/26 11:36:24;;;;;;;24.33;14.30;;;;;;;;;;5027592;28;20296;-85
2022/01/26 11:47:17;;;;;;;26.02;16.30;;;0.50;99.90;;;;;;5027521;28;20710;-84
2022/01/26 11:49:44;;;;;;;29.92;14.20;;;;;;;;;;5029380;28;20196;-84
2022/01/26 11:52:20;;;;;;;25.63;14.15;;;;;;;;;;5021917;28;20228;-83
2022/01/26 11:54:52;;;;;;;22.77;12.38;;;;;;;;;;5018186;28;20299;-85
2022/01/26 11:57:20;;;;;;;26.42;15.65;;;;;;;;;;5029273;28;20224;-84
2022/01/26 11:59:59;;;;;;;32.33;14.93;;;;;;;;;;5027174;28;20193;-84
2022/01/26 12:02:43;;;;;;;27.48;15.52;;;;;;;;;;5027029;28;20205;-86
2022/01/26 12:05:13;;;;;;;22.63;13.07;;;;;;;;;;5024459;28;20201;-85
2022/01/26 12:07:47;;;;;;;32.42;16.13;;;;;;;;;;5029091;28;20189;-84
2022/01/26 12:10:18;;;;;;;29.00;15.93;;;;;;;;;;5028362;28;20200;-85
2022/01/26 12:12:45;;;;;;;29.88;15.45;;;;;;;;;;5028190;28;20340;-84
2022/01/26 12:15:16;;;;;;;21.73;13.85;;;;;;;;;;5029942;28;20200;-84
2022/01/26 12:18:01;;;;;;;28.50;14.52;;;0.50;99.90;;;;;;5041392;28;20238;-85
2022/01/26 12:34:45;;;;;;;27.08;12.85;;;0.80;99.90;;;;;;5028231;28;20477;-84
2022/01/26 12:37:18;;;;;;;31.23;15.15;;;;;;;;;;5025841;28;20221;-85
2022/01/26 12:42:53;;;;;;;31.08;14.95;;;;;;;;;;5026982;28;20574;-84
2022/01/26 12:45:22;;;;;;;33.17;14.77;;;;;;;;;;5027715;28;20189;-84
2022/01/26 12:47:50;;;;;;;34.08;16.40;;;;;;;;;;5027006;28;20282;-84
2022/01/26 12:50:19;;;;;;;27.75;14.48;;;0.70;99.90;;;;;;5028806;28;20250;-84
2022/01/26 12:52:47;;;;;;;27.00;14.73;;;;;;;;;;5027819;28;20208;-84
2022/01/26 12:55:21;;;;;;;29.27;15.57;;;;;;;;;;5033053;28;20693;-84
2022/01/26 12:57:49;;;;;;;20.30;11.93;;;;;;;;;;5027709;28;20285;-85
2022/01/26 13:00:17;;;;;;;26.92;13.82;;;;;;;;;;5026725;28;20192;-84
2022/01/26 13:02:45;;;;;;;21.13;14.23;;;;;;;;;;5026185;28;20228;-84
2022/01/26 13:05:14;;;;;;;26.77;15.85;;;;;;;;;;5026914;28;20629;-85
2022/01/26 13:07:43;;;;;;;27.13;14.07;;;;;;;;;;5027451;28;20203;-84
2022/01/26 13:10:17;;;;;;;33.88;14.60;;;;;;;;;;5027867;28;20193;-84
2022/01/26 13:12:44;;;;;;;24.83;13.35;;;;;;;;;;5027792;28;20239;-84
2022/01/26 13:15:20;;;;;;;24.42;12.27;;;;;;;;;;5022388;28;20699;-84
2022/01/26 13:17:55;;;;;;;24.73;11.75;;;;;;;;;;5026006;28;20220;-84
2022/01/26 13:20:36;;;;;;;24.23;12.57;;;;;;;;;;5026453;28;20204;-85
2022/01/26 13:23:22;;;;;;;21.00;12.48;;;;;;;;;;5022633;28;20292;-84
2022/01/26 13:26:01;;;;;;;32.67;13.98;;;;;;;;;;5027173;28;20575;-84
2022/01/26 13:28:41;;;;;;;24.73;13.63;;;;;;;;;;5032136;28;20276;-85
2022/01/26 13:36:53;;;;;;;27.73;15.23;;;;;;;;;;5025740;28;20690;-84
2022/01/26 13:39:41;;;;;;;20.55;12.52;;;;;;;;;;5030561;28;20595;-84
2022/01/26 13:50:26;;;;;;;27.67;14.00;;;;;;;;;;5029799;28;20618;-84
2022/01/26 13:52:59;;;;;;;24.05;12.35;;;;;;;;;;5030897;28;20235;-84
2022/01/26 14:00:59;;;;;;;24.25;13.75;;;;;;;;;;5029702;28;20690;-84
2022/01/26 14:03:30;;;;;;;27.80;15.10;;;;;;;;;;5022650;28;20579;-84
2022/01/26 14:05:57;;;;;;;22.20;14.15;;;;;;;;;;5029409;28;20208;-84
2022/01/26 14:08:24;;;;;;;26.52;12.23;;;;;;;;;;5030782;28;20700;-83
2022/01/26 14:10:53;;;;;;;23.65;14.07;;;;;;;;;;5023029;28;20244;-84
2022/01/26 14:13:23;;;;;;;24.00;13.27;;;;;;;;;;5030548;28;20569;-85
2022/01/26 14:15:53;;;;;;;26.50;13.25;;;;;;;;;;5029725;28;20232;-84
2022/01/26 14:21:31;;;;;;;21.00;13.35;;;;;;;;;;4988361;28;20210;-84
2022/01/26 14:26:44;;;;;;;25.65;13.75;;;;;;;;;;5017822;28;20224;-85
2022/01/26 14:29:20;;;;;;;25.75;14.38;;;;;;;;;;5029972;28;20236;-85
2022/01/26 14:32:10;;;;;;;24.80;12.60;;;;;;;;;;5030811;28;20646;-85
2022/01/26 14:40:43;;;;;;;25.50;12.98;;;;;;;;;;5025487;28;20205;-84
2022/01/26 14:51:49;;;;;;;15.40;9.27;;;;;;;;;;5030035;28;20204;-85
2022/01/26 15:30:28;;;;;;;20.55;10.15;;;;;;;;;;5020822;28;20610;-84
2022/01/26 15:41:54;;;;;;;12.18;8.10;;;;;;;;;;5015151;28;20640;-85
2022/01/26 15:44:27;;;;;;;15.25;10.23;;;;;;;;;;5026085;28;20204;-85
2022/01/26 15:49:51;;;;;;;15.55;10.70;;;;;;;;;;5024798;28;20236;-85
2022/01/26 15:52:41;;;;;;;26.42;11.60;;;;;;;;;;5026609;28;20229;-85
2022/01/26 15:58:10;;;;;;;20.30;11.30;;;;;;;;;;5028598;28;20716;-86
2022/01/26 16:06:15;;;;;;;20.75;11.70;;;;;;;;;;5026723;28;20559;-85
2022/01/26 16:17:34;;;;;;;20.35;10.82;;;;;;;;;;5028184;28;20255;-85
2022/01/26 16:44:24;;;;;;;22.25;13.23;;;;;;;;;;5028572;28;20213;-85
2022/01/26 17:02:06;;;;;;;21.80;11.90;;;;;;;;;;5008440;28;20284;-85
2022/01/26 17:43:49;;;;;;;19.35;14.48;;;;;;;;;;5031360;28;20288;-85
2022/01/26 18:06:32;;;;;;;23.70;13.05;;;;;;;;;;5028836;28;20204;-85
2022/01/26 18:16:50;;;;;;;25.58;13.30;;;;;;;;;;5028932;28;20220;-85
2022/01/26 18:33:29;;;;;;;24.00;11.93;;;;;;;;;;5030402;28;20216;-85
2022/01/26 18:39:21;;;;;;;28.17;15.10;;;;;;;;;;5045665;28;20457;-85
2022/01/26 18:50:04;;;;;;;26.55;12.18;;;;;;;;;;5010359;28;20288;-85
2022/01/26 18:52:32;;;;;;;28.42;14.57;;;;;;;;;;5010193;28;20604;-86
2022/01/26 18:55:00;;;;;;;23.65;14.23;;;;;;;;;;5009638;28;20233;-84
2022/01/26 18:57:27;;;;;;;29.25;13.90;;;;;;;;;;5009643;28;20229;-85
2022/01/26 18:59:55;;;;;;;26.70;14.73;;;;;;;;;;5021242;28;20232;-85
2022/01/26 19:02:24;;;;;;;27.52;12.75;;;;;;;;;;5029809;28;20255;-85
2022/01/26 19:04:51;;;;;;;29.30;16.70;;;;;;;;;;5028840;28;20287;-85
2022/01/26 19:07:18;;;;;;;33.85;16.42;;;;;;;;;;5029946;28;20188;-85
2022/01/26 19:09:50;;;;;;;29.58;15.13;;;;;;;;;;5029586;28;20236;-85
2022/01/26 19:12:18;;;;;;;28.52;15.02;;;;;;;;;;5029859;28;20244;-84
2022/01/26 19:14:52;;;;;;;35.33;14.32;;;;;;;;;;5028406;28;20243;-84
2022/01/26 19:17:24;;;;;;;25.77;14.30;;;;;;;;;;5028160;28;20571;-85
2022/01/26 19:20:01;;;;;;;26.55;14.90;;;;;;;;;;5029300;28;20307;-85
2022/01/26 19:22:48;;;;;;;22.30;15.27;;;;;;;;;;5027593;28;20280;-85
2022/01/26 19:25:21;;;;;;;22.42;12.68;;;;;;;;;;5027326;28;20235;-86
2022/01/26 19:27:58;;;;;;;19.88;11.05;;;;;;;;;;5026712;28;20196;-85
2022/01/26 19:44:32;;;;;;;17.42;12.93;;;;;;;;;;5027475;28;20254;-85
2022/01/26 19:47:16;;;;;;;32.00;18.02;;;;;;;;;;5015621;28;20746;-85
2022/01/26 19:52:29;;;;;;;21.70;12.10;;;;;;;;;;5040396;28;20212;-85
2022/01/26 19:54:56;;;;;;;32.17;15.57;;;;;;;;;;5027443;28;20730;-85
2022/01/26 19:57:25;;;;;;;30.70;16.05;;;;;;;;;;5030122;28;20302;-85
2022/01/26 19:59:53;;;;;;;25.33;14.50;;;;;;;;;;5029560;28;20276;-85
2022/01/26 20:02:20;;;;;;;23.33;15.10;;;;;;;;;;5016416;28;20224;-85
2022/01/26 20:04:47;;;;;;;27.67;11.90;;;;;;;;;;5023951;28;20678;-85
2022/01/26 20:07:18;;;;;;;27.25;12.25;;;;;;;;;;5028851;28;20240;-85
2022/01/26 20:09:49;;;;;;;23.25;12.85;;;;;;;;;;5028386;28;20235;-85
2022/01/26 20:12:33;;;;;;;18.90;11.85;;;;;;;;;;5028536;28;20193;-84
2022/01/26 20:15:01;;;;;;;26.30;12.25;;;;;;;;;;5028687;28;20204;-86
2022/01/26 20:17:29;;;;;;;28.75;15.02;;;;;;;;;;5009363;28;20251;-85
2022/01/26 20:19:56;;;;;;;22.05;12.02;;;;;;;;;;5008437;28;20233;-85
2022/01/26 20:22:23;;;;;;;29.85;12.10;;;;;;;;;;5009294;28;20213;-85